Time;durP1;ratioP1;P1;durP2;ratioP2;P2;SDS_P1;SDS_P2;PMS_P1;PMS_P2;Temp;Humidity;BMP_temperature;BMP_pressure;BME280_temperature;BME280_humidity;BME280_pressure;Samples;Min_cycle;Max_cycle;Signal;HPM_P1;HPM_P2
2023/09/21 00:01:06;;;;;;;4.20;0.80;;;16.00;99.90;;;;;;5132147;27;20019;-47
2023/09/21 00:03:36;;;;;;;0.35;0.35;;;14.10;99.90;;;;;;5132232;27;20026;-49
2023/09/21 00:06:03;;;;;;;1.60;0.60;;;11.30;99.90;;;;;;5132025;27;20023;-51
2023/09/21 00:08:30;;;;;;;3.33;0.68;;;;;;;;;;5119423;27;20032;-43
2023/09/21 00:10:58;;;;;;;2.67;0.57;;;14.90;99.90;;;;;;5130174;27;20655;-50
2023/09/21 00:13:26;;;;;;;3.25;0.70;;;15.20;99.90;;;;;;5131764;27;20022;-53
2023/09/21 00:15:53;;;;;;;4.70;0.50;;;14.90;99.90;;;;;;5132017;27;20130;-51
2023/09/21 00:18:21;;;;;;;1.42;0.40;;;14.70;99.90;;;;;;5131886;27;20154;-51
2023/09/21 00:20:55;;;;;;;0.55;0.40;;;15.20;99.90;;;;;;5131835;27;20035;-50
2023/09/21 00:23:23;;;;;;;1.30;0.60;;;14.90;99.90;;;;;;5131913;27;20027;-56
2023/09/21 00:25:49;;;;;;;4.05;1.00;;;;;;;;;;5132120;27;20460;-42
2023/09/21 00:28:15;;;;;;;1.90;0.85;;;13.00;99.90;;;;;;5132127;27;20034;-44
2023/09/21 00:30:44;;;;;;;1.73;1.00;;;14.20;99.90;;;;;;5131597;27;20022;-52
2023/09/21 00:33:11;;;;;;;0.90;0.47;;;14.50;99.90;;;;;;5131890;27;20031;-56
2023/09/21 00:35:39;;;;;;;3.13;0.55;;;15.10;99.90;;;;;;5131188;27;20061;-53
2023/09/21 00:38:10;;;;;;;0.40;0.40;;;14.00;99.90;;;;;;5131675;27;20061;-55
2023/09/21 00:40:39;;;;;;;1.55;0.52;;;;;;;;;;5130122;27;20059;-58
2023/09/21 00:43:10;;;;;;;3.03;0.40;;;10.90;99.90;;;;;;5131610;27;20172;-54
2023/09/21 00:45:37;;;;;;;1.38;0.70;;;13.40;99.90;;;;;;5131466;27;20118;-51
2023/09/21 00:48:13;;;;;;;1.55;0.63;;;14.90;99.90;;;;;;5131729;27;20019;-49
2023/09/21 00:50:41;;;;;;;3.15;0.65;;;13.90;99.90;;;;;;5131305;27;20031;-52
2023/09/21 00:53:12;;;;;;;4.80;0.80;;;14.20;99.90;;;;;;5131409;27;20023;-52
2023/09/21 00:55:40;;;;;;;4.15;0.70;;;14.70;99.90;;;;;;5131400;28;20042;-58
2023/09/21 00:58:07;;;;;;;2.47;0.60;;;14.00;99.90;;;;;;5131376;27;20046;-44
2023/09/21 01:00:33;;;;;;;1.50;0.70;;;11.30;99.90;;;;;;5112924;28;20476;-47
2023/09/21 01:03:07;;;;;;;2.05;0.85;;;10.80;99.90;;;;;;5130756;28;20023;-55
2023/09/21 01:05:36;;;;;;;2.70;0.80;;;13.90;99.90;;;;;;5130499;27;20027;-53
2023/09/21 01:08:05;;;;;;;1.33;0.65;;;14.90;99.90;;;;;;5122195;28;20051;-55
2023/09/21 01:10:33;;;;;;;1.55;0.65;;;14.50;99.90;;;;;;5125523;27;20107;-51
2023/09/21 01:12:59;;;;;;;2.38;0.52;;;15.20;99.90;;;;;;5131246;28;20252;-46
2023/09/21 01:15:25;;;;;;;1.40;0.50;;;;;;;;;;5130993;27;20484;-50
2023/09/21 01:17:50;;;;;;;0.75;0.38;;;12.70;99.90;;;;;;5130824;28;20015;-49
2023/09/21 01:23:12;;;;;;;1.52;0.50;;;11.90;99.90;;;;;;5131168;27;20011;-54
2023/09/21 01:25:40;;;;;;;3.03;0.60;;;13.90;99.90;;;;;;5130809;27;20061;-40
2023/09/21 01:28:09;;;;;;;0.60;0.47;;;13.90;99.90;;;;;;5131104;27;20018;-56
2023/09/21 01:30:38;;;;;;;3.03;0.80;;;11.50;99.90;;;;;;5112385;27;20562;-60
2023/09/21 01:33:07;;;;;;;5.00;0.80;;;15.30;99.90;;;;;;5131014;27;20031;-58
2023/09/21 01:35:33;;;;;;;0.47;0.40;;;11.10;99.90;;;;;;5130966;28;20114;-51
2023/09/21 01:37:59;;;;;;;0.65;0.50;;;13.20;99.90;;;;;;5130469;27;20209;-49
2023/09/21 01:40:25;;;;;;;3.05;0.70;;;;;;;;;;5130486;28;20121;-50
2023/09/21 01:42:51;;;;;;;0.90;0.57;;;;;;;;;;5130900;28;20464;-50
2023/09/21 01:45:16;;;;;;;2.88;0.52;;;13.50;99.90;;;;;;5130716;28;20030;-47
2023/09/21 01:47:43;;;;;;;3.67;0.75;;;11.70;99.90;;;;;;5130659;27;20102;-53
2023/09/21 01:50:15;;;;;;;2.58;0.63;;;11.80;99.90;;;;;;5130662;27;20029;-51
2023/09/21 01:52:41;;;;;;;3.40;0.90;;;13.90;99.90;;;;;;5134604;27;20472;-52
2023/09/21 01:55:10;;;;;;;0.60;0.40;;;16.00;99.90;;;;;;5134438;27;20043;-50
2023/09/21 01:57:39;;;;;;;2.33;0.93;;;14.60;99.90;;;;;;5134534;27;20031;-55
2023/09/21 02:00:21;;;;;;;4.28;1.33;;;15.00;99.90;;;;;;5134385;27;20023;-52
2023/09/21 02:02:47;;;;;;;1.90;0.65;;;;;;;;;;5134464;27;20023;-44
2023/09/21 02:05:13;;;;;;;1.50;0.85;;;14.50;99.90;;;;;;5134227;27;20443;-55
2023/09/21 02:07:40;;;;;;;1.38;0.70;;;11.20;99.90;;;;;;5128756;27;20015;-44
2023/09/21 02:10:09;;;;;;;1.63;0.70;;;;;;;;;;5125522;27;20080;-45
2023/09/21 02:12:41;;;;;;;0.50;0.50;;;13.30;99.90;;;;;;5133988;27;20026;-57
2023/09/21 02:15:12;;;;;;;0.82;0.40;;;;;;;;;;5115948;27;20035;-55
2023/09/21 02:17:41;;;;;;;0.93;0.57;;;13.80;99.90;;;;;;5134019;27;20034;-55
2023/09/21 02:20:13;;;;;;;1.42;0.80;;;15.60;99.90;;;;;;5134230;27;20031;-53
2023/09/21 02:22:39;;;;;;;1.40;0.73;;;;;;;;;;5133964;27;20027;-62
2023/09/21 02:25:10;;;;;;;3.17;0.77;;;14.50;99.90;;;;;;5134348;27;20088;-60
2023/09/21 02:27:37;;;;;;;4.53;0.70;;;13.40;99.90;;;;;;5125806;27;20047;-53
2023/09/21 02:30:08;;;;;;;0.57;0.35;;;13.90;99.90;;;;;;5125552;27;20114;-40
2023/09/21 02:32:35;;;;;;;1.20;0.60;;;;;;;;;;5112719;28;20111;-48
2023/09/21 02:35:01;;;;;;;1.13;0.55;;;11.00;99.90;;;;;;5113049;28;20099;-58
2023/09/21 02:37:28;;;;;;;1.40;0.73;;;13.20;99.90;;;;;;5130538;27;20030;-58
2023/09/21 02:39:53;;;;;;;1.92;0.57;;;11.80;99.90;;;;;;5124023;27;20043;-49
2023/09/21 02:42:19;;;;;;;1.17;0.60;;;14.20;99.90;;;;;;5112092;27;20099;-53
2023/09/21 02:44:46;;;;;;;2.08;0.85;;;13.50;99.90;;;;;;5115471;27;20024;-44
2023/09/21 02:47:11;;;;;;;2.47;0.88;;;14.30;99.90;;;;;;5118850;27;20019;-57
2023/09/21 02:49:37;;;;;;;1.55;0.60;;;14.20;99.90;;;;;;5129415;27;20152;-49
2023/09/21 02:52:04;;;;;;;1.63;0.60;;;13.50;99.90;;;;;;5122946;27;20023;-42
2023/09/21 02:54:32;;;;;;;2.00;0.50;;;13.80;99.90;;;;;;5133293;27;20039;-44
2023/09/21 02:56:59;;;;;;;0.70;0.50;;;15.10;99.90;;;;;;5115057;27;20035;-59
2023/09/21 02:59:28;;;;;;;3.15;1.00;;;14.30;99.90;;;;;;5118720;27;20035;-55
2023/09/21 03:01:54;;;;;;;2.50;0.68;;;13.80;99.90;;;;;;5132436;27;20032;-54
2023/09/21 03:04:20;;;;;;;0.50;0.50;;;14.00;99.90;;;;;;5132738;27;20031;-59
2023/09/21 03:06:46;;;;;;;1.92;0.70;;;11.50;99.90;;;;;;5133178;27;20532;-55
2023/09/21 03:09:11;;;;;;;1.83;0.95;;;14.00;99.90;;;;;;5133201;27;20019;-51
2023/09/21 03:11:39;;;;;;;2.25;0.50;;;11.90;99.90;;;;;;5133016;27;20659;-44
2023/09/21 03:14:05;;;;;;;2.92;0.57;;;14.90;99.90;;;;;;5133213;27;20026;-57
2023/09/21 03:16:32;;;;;;;1.35;0.73;;;15.40;99.90;;;;;;5099927;27;20035;-56
2023/09/21 03:18:58;;;;;;;1.98;0.70;;;14.80;99.90;;;;;;5133033;27;20049;-56
2023/09/21 03:21:24;;;;;;;5.22;1.20;;;14.50;99.90;;;;;;5133105;27;20019;-48
2023/09/21 03:23:52;;;;;;;2.53;0.73;;;15.30;99.90;;;;;;5132773;27;20468;-58
2023/09/21 03:26:18;;;;;;;5.95;1.10;;;;;;;;;;5132958;27;20031;-57
2023/09/21 03:28:45;;;;;;;2.55;1.00;;;14.60;99.90;;;;;;5132361;27;20038;-56
2023/09/21 03:31:16;;;;;;;2.22;0.50;;;13.10;99.90;;;;;;5132717;27;20061;-56
2023/09/21 03:33:41;;;;;;;1.83;0.80;;;10.70;99.90;;;;;;5132621;27;20447;-59
2023/09/21 03:36:13;;;;;;;1.92;0.80;;;14.20;99.90;;;;;;5132697;27;20078;-57
2023/09/21 03:38:39;;;;;;;3.08;1.00;;;;;;;;;;5132574;27;20083;-54
2023/09/21 03:41:05;;;;;;;1.75;0.70;;;13.70;99.90;;;;;;5132539;27;20052;-60
2023/09/21 03:43:30;;;;;;;1.10;0.65;;;13.60;99.90;;;;;;5132570;27;20020;-49
2023/09/21 03:45:56;;;;;;;1.92;0.80;;;14.60;99.90;;;;;;5132028;27;20388;-42
2023/09/21 03:48:22;;;;;;;2.75;0.82;;;;;;;;;;5132416;27;20019;-43
2023/09/21 03:50:49;;;;;;;3.28;0.82;;;14.00;99.90;;;;;;5125026;27;20106;-41
2023/09/21 03:53:14;;;;;;;5.97;1.33;;;14.20;99.90;;;;;;5132333;27;20027;-41
2023/09/21 03:55:41;;;;;;;1.88;0.55;;;14.90;99.90;;;;;;5132231;27;20035;-46
2023/09/21 03:58:07;;;;;;;4.07;0.80;;;14.20;99.90;;;;;;5132388;27;20023;-59
2023/09/21 04:03:01;;;;;;;1.42;0.68;;;10.60;99.90;;;;;;5131839;27;20074;-57
2023/09/21 04:05:29;;;;;;;3.28;0.98;;;15.30;99.90;;;;;;5132025;27;20031;-57
2023/09/21 04:07:55;;;;;;;1.25;0.70;;;14.00;99.90;;;;;;5132059;27;20020;-50
2023/09/21 04:10:21;;;;;;;2.83;0.70;;;10.40;99.90;;;;;;5131920;27;20023;-56
2023/09/21 04:12:46;;;;;;;1.50;0.70;;;13.40;99.90;;;;;;5131698;27;20026;-47
2023/09/21 04:15:13;;;;;;;3.53;0.57;;;14.70;99.90;;;;;;5131597;27;20035;-56
2023/09/21 04:17:39;;;;;;;1.38;0.52;;;12.90;99.90;;;;;;5131755;27;20106;-51
2023/09/21 04:20:11;;;;;;;1.17;0.57;;;13.80;99.90;;;;;;5131815;27;20027;-53
2023/09/21 04:22:41;;;;;;;1.45;0.60;;;13.40;99.90;;;;;;5131272;27;20031;-54
2023/09/21 04:25:12;;;;;;;2.20;0.73;;;13.40;99.90;;;;;;5131198;27;20027;-44
2023/09/21 04:27:39;;;;;;;2.22;0.57;;;14.00;99.90;;;;;;5131349;27;20023;-50
2023/09/21 04:30:09;;;;;;;0.93;0.70;;;13.30;99.90;;;;;;5131539;27;20540;-51
2023/09/21 04:32:38;;;;;;;6.07;0.77;;;11.60;99.90;;;;;;5131601;27;20498;-51
2023/09/21 04:35:05;;;;;;;1.67;0.57;;;13.20;99.90;;;;;;5131558;27;20394;-58
2023/09/21 04:37:33;;;;;;;4.47;0.70;;;14.10;99.90;;;;;;5131379;27;20027;-53
2023/09/21 04:39:59;;;;;;;4.05;0.68;;;13.40;99.90;;;;;;5131139;27;20120;-51
2023/09/21 04:42:27;;;;;;;1.50;0.60;;;10.70;99.90;;;;;;5131442;27;20114;-56
2023/09/21 04:44:55;;;;;;;1.75;0.60;;;10.30;99.90;;;;;;5131255;27;20498;-54
2023/09/21 04:47:21;;;;;;;2.88;0.73;;;12.40;99.90;;;;;;5131434;27;20031;-51
2023/09/21 04:49:48;;;;;;;1.13;0.60;;;;;;;;;;5123935;27;20032;-51
2023/09/21 04:52:13;;;;;;;2.22;0.50;;;14.30;99.90;;;;;;5124769;27;20016;-50
2023/09/21 04:54:39;;;;;;;3.45;1.00;;;15.30;99.90;;;;;;5131158;27;20084;-55
2023/09/21 04:57:04;;;;;;;1.35;0.70;;;13.60;99.90;;;;;;5131675;28;20031;-51
2023/09/21 04:59:30;;;;;;;0.98;0.47;;;;;;;;;;5131426;27;20039;-45
2023/09/21 05:01:56;;;;;;;0.90;0.55;;;10.80;99.90;;;;;;5131539;27;20211;-50
2023/09/21 05:04:22;;;;;;;1.42;0.65;;;10.20;99.90;;;;;;5130535;27;20468;-56
2023/09/21 05:06:47;;;;;;;0.63;0.43;;;13.40;99.90;;;;;;5130158;28;20054;-59
2023/09/21 05:09:15;;;;;;;1.40;0.63;;;11.10;99.90;;;;;;5130946;28;20019;-46
2023/09/21 05:11:40;;;;;;;1.40;0.68;;;14.20;99.90;;;;;;5131166;27;20027;-52
2023/09/21 05:14:06;;;;;;;3.42;0.82;;;13.80;99.90;;;;;;5131224;28;20027;-47
2023/09/21 05:16:32;;;;;;;1.98;0.60;;;14.20;99.90;;;;;;5130990;28;20118;-57
2023/09/21 05:18:58;;;;;;;2.85;0.80;;;13.40;99.90;;;;;;5131070;27;20023;-59
2023/09/21 05:21:23;;;;;;;2.78;0.85;;;13.90;99.90;;;;;;5131213;28;20647;-55
2023/09/21 05:23:49;;;;;;;3.20;0.82;;;;;;;;;;5131147;28;20027;-52
2023/09/21 05:26:15;;;;;;;1.60;0.60;;;11.00;99.90;;;;;;5132838;27;20031;-52
2023/09/21 05:28:41;;;;;;;0.80;0.60;;;13.50;99.90;;;;;;5135022;27;20026;-44
2023/09/21 05:31:09;;;;;;;2.92;0.80;;;10.50;99.90;;;;;;5135383;27;20061;-52
2023/09/21 05:33:36;;;;;;;1.30;0.70;;;14.00;99.90;;;;;;5134961;27;20111;-48
2023/09/21 05:36:04;;;;;;;1.70;0.73;;;10.80;99.90;;;;;;5134924;27;20039;-47
2023/09/21 05:38:32;;;;;;;2.30;0.80;;;10.00;99.90;;;;;;5134308;27;20019;-54
2023/09/21 05:41:04;;;;;;;0.98;0.60;;;13.70;99.90;;;;;;5134874;27;20480;-50
2023/09/21 05:43:32;;;;;;;2.10;0.73;;;14.20;99.90;;;;;;5134875;27;20379;-48
2023/09/21 05:45:58;;;;;;;2.38;1.02;;;10.20;99.90;;;;;;5134551;27;20098;-55
2023/09/21 05:48:24;;;;;;;0.95;0.68;;;14.80;99.90;;;;;;5134593;27;20106;-59
2023/09/21 05:50:51;;;;;;;2.60;0.80;;;;;;;;;;5120153;27;20038;-47
2023/09/21 05:53:17;;;;;;;1.40;0.80;;;13.80;99.90;;;;;;5134863;27;20019;-55
2023/09/21 05:55:45;;;;;;;0.77;0.52;;;11.40;99.90;;;;;;5134423;27;20548;-45
2023/09/21 05:58:11;;;;;;;3.13;0.60;;;;;;;;;;5116959;27;20071;-53
2023/09/21 06:00:37;;;;;;;1.35;0.70;;;11.00;99.90;;;;;;5134532;27;20102;-55
2023/09/21 06:03:02;;;;;;;1.98;0.75;;;13.70;99.90;;;;;;5134357;27;20053;-51
2023/09/21 06:05:29;;;;;;;1.02;0.47;;;14.00;99.90;;;;;;5134337;27;20094;-49
2023/09/21 06:07:56;;;;;;;1.42;0.77;;;13.70;99.90;;;;;;5134482;27;20049;-57
2023/09/21 06:10:30;;;;;;;3.00;0.95;;;14.00;99.90;;;;;;5134424;27;20055;-51
2023/09/21 06:12:56;;;;;;;2.58;1.00;;;11.10;99.90;;;;;;5134472;27;20027;-52
2023/09/21 06:15:22;;;;;;;2.95;1.27;;;10.70;99.90;;;;;;5134532;27;20429;-45
2023/09/21 06:17:48;;;;;;;0.98;0.70;;;;;;;;;;5134253;27;20500;-44
2023/09/21 06:20:15;;;;;;;4.68;0.70;;;13.90;99.90;;;;;;5134047;27;20027;-60
2023/09/21 06:22:41;;;;;;;1.83;0.77;;;13.70;99.90;;;;;;5134124;27;20483;-49
2023/09/21 06:25:07;;;;;;;3.45;1.13;;;11.50;99.90;;;;;;5134002;27;20479;-49
2023/09/21 06:27:36;;;;;;;1.20;0.80;;;12.80;99.90;;;;;;5115940;27;20026;-43
2023/09/21 06:30:02;;;;;;;;;;;12.80;99.90;;;;;;5134558;27;20027;-55
2023/09/21 06:32:27;;;;;;;2.10;0.60;;;11.00;99.90;;;;;;5133943;27;19903;-52
2023/09/21 06:34:53;;;;;;;2.42;0.98;;;13.70;99.90;;;;;;5133879;27;20124;-51
2023/09/21 06:37:19;;;;;;;3.33;0.60;;;13.50;99.90;;;;;;5132672;27;20054;-55
2023/09/21 06:39:45;;;;;;;3.63;0.80;;;11.00;99.90;;;;;;5133729;27;20050;-47
2023/09/21 06:42:11;;;;;;;1.98;0.85;;;;;;;;;;5133454;27;20027;-44
2023/09/21 06:44:37;;;;;;;2.63;0.65;;;13.70;99.90;;;;;;5130744;27;20146;-50
2023/09/21 06:47:03;;;;;;;4.97;1.00;;;;;;;;;;5113392;27;20038;-45
2023/09/21 06:49:29;;;;;;;3.50;1.05;;;14.80;99.90;;;;;;5112865;28;20080;-57
2023/09/21 06:51:56;;;;;;;4.35;1.10;;;11.10;99.90;;;;;;5106020;27;20060;-57
2023/09/21 06:54:26;;;;;;;3.00;0.52;;;14.10;99.90;;;;;;5133659;27;20023;-56
2023/09/21 06:56:52;;;;;;;1.70;0.80;;;14.00;99.90;;;;;;5131798;27;20484;-51
2023/09/21 06:59:17;;;;;;;2.40;1.00;;;15.20;99.90;;;;;;5128791;27;20038;-50
2023/09/21 07:01:43;;;;;;;2.90;1.20;;;13.40;99.90;;;;;;5108462;28;20160;-48
2023/09/21 07:04:08;;;;;;;3.33;0.95;;;13.40;99.90;;;;;;5113045;28;20028;-51
2023/09/21 07:06:35;;;;;;;2.28;0.77;;;14.20;99.90;;;;;;5112119;28;20030;-50
2023/09/21 07:09:02;;;;;;;1.60;0.85;;;11.20;99.90;;;;;;5131820;27;20027;-47
2023/09/21 07:11:28;;;;;;;1.98;1.00;;;14.50;99.90;;;;;;5114754;27;20425;-45
2023/09/21 07:13:54;;;;;;;1.50;0.70;;;;;;;;;;5121341;27;20068;-56
2023/09/21 07:16:21;;;;;;;2.25;0.88;;;10.10;99.90;;;;;;5112413;28;20039;-48
2023/09/21 07:18:47;;;;;;;1.23;1.05;;;;;;;;;;5096616;27;20118;-50
2023/09/21 07:21:14;;;;;;;1.67;0.93;;;13.40;99.90;;;;;;5119324;27;20069;-52
2023/09/21 07:23:40;;;;;;;1.65;0.90;;;14.50;99.90;;;;;;5112939;27;20486;-49
2023/09/21 07:26:06;;;;;;;1.33;0.90;;;15.60;99.90;;;;;;5112350;28;20027;-53
2023/09/21 07:28:32;;;;;;;3.67;1.00;;;13.80;99.90;;;;;;5112419;28;20380;-51
2023/09/21 07:30:58;;;;;;;1.70;0.82;;;15.20;99.90;;;;;;5111871;28;20077;-53
2023/09/21 07:33:23;;;;;;;1.38;0.90;;;15.70;99.90;;;;;;5112376;28;20020;-49
2023/09/21 07:35:51;;;;;;;1.10;0.80;;;14.70;99.90;;;;;;5112247;28;20500;-54
2023/09/21 07:38:19;;;;;;;5.20;1.00;;;14.80;99.90;;;;;;5117359;27;20388;-48
2023/09/21 07:40:45;;;;;;;2.90;0.82;;;13.60;99.90;;;;;;5116235;27;20127;-48
2023/09/21 07:43:12;;;;;;;1.20;0.70;;;14.80;99.90;;;;;;5119671;27;20126;-46
2023/09/21 07:45:38;;;;;;;1.73;0.73;;;11.40;99.90;;;;;;5111639;27;20043;-47
2023/09/21 07:48:05;;;;;;;3.40;0.68;;;14.70;99.90;;;;;;5111759;27;20419;-45
2023/09/21 07:50:34;;;;;;;2.30;0.80;;;14.70;99.90;;;;;;5094169;28;20415;-47
2023/09/21 07:53:03;;;;;;;1.05;0.80;;;14.70;99.90;;;;;;5132009;27;20494;-47
2023/09/21 07:55:30;;;;;;;0.93;0.63;;;16.50;99.90;;;;;;5131993;27;20039;-45
2023/09/21 07:57:56;;;;;;;3.45;1.05;;;14.80;99.90;;;;;;5132214;27;20027;-53
2023/09/21 08:00:22;;;;;;;1.70;0.95;;;16.00;99.90;;;;;;5128175;27;20023;-50
2023/09/21 08:02:47;;;;;;;6.03;1.42;;;15.00;99.90;;;;;;5128924;27;20475;-50
2023/09/21 08:05:14;;;;;;;7.93;1.52;;;12.10;99.90;;;;;;5129602;27;20027;-40
2023/09/21 08:07:40;;;;;;;1.27;0.85;;;12.90;99.90;;;;;;5128674;27;20023;-49
2023/09/21 08:10:07;;;;;;;4.03;1.17;;;14.70;99.90;;;;;;5130825;27;20052;-54
2023/09/21 08:12:36;;;;;;;1.65;0.68;;;11.90;99.90;;;;;;5131924;27;20517;-46
2023/09/21 08:15:01;;;;;;;1.05;0.73;;;15.20;99.90;;;;;;5131796;27;20030;-47
2023/09/21 08:17:30;;;;;;;0.85;0.70;;;16.00;99.90;;;;;;5131664;27;20024;-44
2023/09/21 08:19:57;;;;;;;1.50;0.55;;;14.60;99.90;;;;;;5126553;27;20098;-46
2023/09/21 08:22:23;;;;;;;1.10;0.70;;;;;;;;;;5116409;27;20440;-46
2023/09/21 08:24:49;;;;;;;1.75;0.70;;;;;;;;;;5111096;27;20019;-42
2023/09/21 08:27:14;;;;;;;3.55;1.17;;;12.80;99.90;;;;;;5111309;28;20043;-49
2023/09/21 08:29:41;;;;;;;3.58;1.13;;;15.40;99.90;;;;;;5110986;28;20124;-43
2023/09/21 08:32:07;;;;;;;4.65;1.10;;;16.30;99.90;;;;;;5111538;27;20087;-47
2023/09/21 08:34:32;;;;;;;3.25;0.80;;;16.50;99.90;;;;;;5111088;28;20111;-50
2023/09/21 08:36:58;;;;;;;3.92;0.90;;;16.20;99.90;;;;;;5111131;28;20381;-48
2023/09/21 08:39:24;;;;;;;3.72;0.70;;;17.60;99.90;;;;;;5110736;28;20051;-44
2023/09/21 08:41:51;;;;;;;2.17;0.82;;;13.90;99.90;;;;;;5110743;28;20414;-53
2023/09/21 08:44:17;;;;;;;4.20;1.00;;;19.30;99.90;;;;;;5110715;28;20472;-50
2023/09/21 08:46:54;;;;;;;5.30;1.00;;;18.50;99.90;;;;;;5110753;28;20111;-51
2023/09/21 08:49:22;;;;;;;2.38;1.17;;;18.30;99.90;;;;;;5110802;28;20031;-48
2023/09/21 08:51:48;;;;;;;2.83;0.70;;;19.50;99.90;;;;;;5119976;27;20037;-51
2023/09/21 08:54:16;;;;;;;2.13;0.70;;;19.50;99.90;;;;;;5131128;27;20094;-52
2023/09/21 08:56:43;;;;;;;2.28;0.90;;;19.80;99.90;;;;;;5131077;27;20483;-56
2023/09/21 08:59:09;;;;;;;1.90;0.50;;;19.20;99.90;;;;;;5130904;28;20490;-54
2023/09/21 09:01:36;;;;;;;3.65;0.70;;;19.30;99.90;;;;;;5130567;27;20019;-52
2023/09/21 09:04:02;;;;;;;2.08;0.70;;;18.70;99.90;;;;;;5131416;27;20118;-49
2023/09/21 09:06:29;;;;;;;3.65;0.50;;;;;;;;;;5131162;27;20382;-49
2023/09/21 09:08:55;;;;;;;3.65;0.75;;;;;;;;;;5130601;28;20557;-46
2023/09/21 09:11:40;;;;;;;1.10;0.60;;;14.70;99.90;;;;;;5129357;28;20046;-43
2023/09/21 09:14:14;;;;;;;4.63;0.98;;;18.10;99.90;;;;;;5129721;27;20054;-43
2023/09/21 09:16:41;;;;;;;2.88;0.50;;;20.00;99.90;;;;;;5130599;27;20076;-59
2023/09/21 09:19:06;;;;;;;4.03;0.73;;;15.20;99.90;;;;;;5130039;28;20109;-47
2023/09/21 09:21:32;;;;;;;4.72;0.82;;;19.10;99.90;;;;;;5130084;27;20106;-50
2023/09/21 09:23:59;;;;;;;2.25;0.43;;;18.40;99.90;;;;;;5130404;28;20026;-54
2023/09/21 09:26:25;;;;;;;7.00;1.08;;;;;;;;;;5131113;27;20361;-50
2023/09/21 09:29:02;;;;;;;4.38;0.77;;;18.80;99.90;;;;;;5130819;27;20117;-44
2023/09/21 09:31:28;;;;;;;2.10;0.60;;;16.20;99.90;;;;;;5131005;27;20035;-55
2023/09/21 09:33:55;;;;;;;1.20;0.57;;;20.20;99.90;;;;;;5127904;27;20075;-55
2023/09/21 09:36:21;;;;;;;2.65;0.52;;;;;;;;;;5128616;28;20423;-44
2023/09/21 09:38:47;;;;;;;0.90;0.47;;;22.30;99.90;;;;;;5130845;27;20097;-53
2023/09/21 09:41:15;;;;;;;3.28;1.10;;;19.60;99.90;;;;;;5129017;27;20019;-46
2023/09/21 09:43:42;;;;;;;4.32;0.88;;;19.40;99.90;;;;;;5124704;28;20473;-48
2023/09/21 09:46:11;;;;;;;5.38;1.85;;;18.50;99.90;;;;;;5113808;27;20032;-49
2023/09/21 09:48:39;;;;;;;3.72;0.88;;;15.90;99.90;;;;;;5114178;28;20605;-47
2023/09/21 09:51:11;;;;;;;7.30;1.95;;;19.10;99.90;;;;;;5117072;27;20428;-43
2023/09/21 09:53:38;;;;;;;5.28;1.00;;;19.20;99.90;;;;;;5110393;28;20384;-43
2023/09/21 09:56:10;;;;;;;8.18;2.05;;;20.10;99.90;;;;;;5113155;27;20028;-43
2023/09/21 09:58:42;;;;;;;3.65;0.82;;;18.40;99.90;;;;;;5118076;28;20023;-49
2023/09/21 10:01:12;;;;;;;2.22;0.52;;;19.50;99.90;;;;;;5125436;27;20105;-49
2023/09/21 10:03:40;;;;;;;4.63;0.80;;;19.30;99.90;;;;;;5111558;28;20023;-50
2023/09/21 10:06:09;;;;;;;11.98;1.40;;;18.00;99.90;;;;;;5114748;28;20035;-47
2023/09/21 10:08:39;;;;;;;2.17;0.60;;;19.60;99.90;;;;;;5119658;28;20399;-48
2023/09/21 10:11:07;;;;;;;2.95;0.80;;;17.90;99.90;;;;;;5124675;28;20027;-52
2023/09/21 10:13:35;;;;;;;4.32;0.98;;;15.40;99.90;;;;;;5123324;27;20080;-48
2023/09/21 10:16:05;;;;;;;3.20;0.68;;;20.30;99.90;;;;;;5112575;27;20044;-47
2023/09/21 10:18:35;;;;;;;3.40;0.80;;;18.40;99.90;;;;;;5121437;27;20480;-46
2023/09/21 10:21:23;;;;;;;3.28;0.80;;;19.00;99.90;;;;;;5115102;27;20066;-54
2023/09/21 10:24:06;;;;;;;2.92;0.80;;;19.20;99.90;;;;;;5121736;27;20063;-46
2023/09/21 10:26:53;;;;;;;4.15;0.75;;;18.90;99.90;;;;;;5114875;27;20039;-52
2023/09/21 10:29:29;;;;;;;4.90;1.15;;;22.10;99.90;;;;;;5123843;27;20035;-47
2023/09/21 10:32:00;;;;;;;4.10;0.90;;;22.00;99.90;;;;;;5126079;27;20024;-44
2023/09/21 10:34:26;;;;;;;2.05;0.73;;;22.60;99.90;;;;;;5121423;27;20030;-59
2023/09/21 10:37:00;;;;;;;3.90;1.00;;;21.40;99.90;;;;;;5113269;27;20028;-49
2023/09/21 10:39:26;;;;;;;9.68;1.65;;;23.30;99.90;;;;;;5114265;27;20560;-46
2023/09/21 10:41:56;;;;;;;1.65;0.70;;;22.10;99.90;;;;;;5112884;27;20119;-53
2023/09/21 10:44:53;;;;;;;1.63;0.80;;;22.90;99.90;;;;;;5113225;27;20023;-51
2023/09/21 10:47:48;;;;;;;4.72;1.10;;;21.70;99.90;;;;;;5132849;27;20019;-54
2023/09/21 10:50:16;;;;;;;3.53;0.60;;;21.80;99.90;;;;;;5106853;28;20114;-53
2023/09/21 10:52:55;;;;;;;2.38;0.80;;;22.30;99.90;;;;;;5113190;27;20015;-49
2023/09/21 10:55:21;;;;;;;;;;;22.10;99.90;;;;;;5120018;27;20110;-60
2023/09/21 10:57:48;;;;;;;2.40;0.65;;;23.10;99.90;;;;;;5115494;27;20045;-52
2023/09/21 11:00:20;;;;;;;6.68;0.80;;;20.60;99.90;;;;;;5132329;27;20030;-43
2023/09/21 11:02:46;;;;;;;3.33;0.77;;;21.30;99.90;;;;;;5117171;27;20016;-53
2023/09/21 11:05:16;;;;;;;3.53;0.65;;;19.20;99.90;;;;;;5116433;27;20394;-49
2023/09/21 11:07:43;;;;;;;;;;;19.70;99.90;;;;;;5118693;27;20035;-57
2023/09/21 11:10:11;;;;;;;1.73;0.57;;;18.80;99.90;;;;;;5124152;27;19904;-44
2023/09/21 11:12:40;;;;;;;4.13;0.90;;;19.10;99.90;;;;;;5113220;27;20055;-44
2023/09/21 11:15:12;;;;;;;4.50;0.80;;;18.80;99.90;;;;;;5112437;27;20440;-53
2023/09/21 11:17:41;;;;;;;8.73;1.00;;;19.50;99.90;;;;;;5115559;27;20038;-46
2023/09/21 11:20:08;;;;;;;5.93;0.98;;;21.20;99.90;;;;;;5112755;27;20086;-51
2023/09/21 11:22:34;;;;;;;5.25;0.93;;;19.20;99.90;;;;;;5107353;27;20512;-54
2023/09/21 11:25:00;;;;;;;3.90;0.70;;;21.10;99.90;;;;;;5114330;27;20540;-50
2023/09/21 11:27:28;;;;;;;2.45;0.70;;;19.40;99.90;;;;;;5124351;27;20024;-57
2023/09/21 11:29:54;;;;;;;5.03;0.77;;;19.50;99.90;;;;;;5117550;27;20023;-53
2023/09/21 11:32:22;;;;;;;3.03;0.70;;;19.70;99.90;;;;;;5121079;27;20034;-54
2023/09/21 11:34:56;;;;;;;1.80;0.60;;;18.70;99.90;;;;;;5111622;27;20036;-52
2023/09/21 11:37:22;;;;;;;3.05;0.80;;;;;;;;;;5112885;27;20028;-58
2023/09/21 11:39:49;;;;;;;4.57;0.88;;;15.90;99.90;;;;;;5118011;27;20050;-44
2023/09/21 11:42:17;;;;;;;2.65;0.75;;;19.40;99.90;;;;;;5116137;27;20015;-48
2023/09/21 11:44:43;;;;;;;4.68;0.73;;;19.10;99.90;;;;;;5120391;27;20023;-44
2023/09/21 11:47:09;;;;;;;2.60;0.60;;;18.10;99.90;;;;;;5124435;27;20028;-49
2023/09/21 11:49:40;;;;;;;3.30;0.65;;;18.70;99.90;;;;;;5111813;27;20593;-52
2023/09/21 11:52:06;;;;;;;3.30;0.57;;;18.10;99.90;;;;;;5112727;27;20023;-58
2023/09/21 11:54:35;;;;;;;3.33;0.73;;;;;;;;;;5112252;27;20461;-60
2023/09/21 11:57:11;;;;;;;2.38;0.80;;;16.40;99.90;;;;;;5116378;27;20062;-56
2023/09/21 11:59:42;;;;;;;2.75;0.77;;;17.80;99.90;;;;;;5114337;27;20024;-52
2023/09/21 12:02:14;;;;;;;4.07;0.80;;;17.70;99.90;;;;;;5120842;27;20063;-54
2023/09/21 12:04:41;;;;;;;2.45;0.73;;;17.70;99.90;;;;;;5111563;27;20059;-49
2023/09/21 12:07:09;;;;;;;6.45;1.02;;;17.50;99.90;;;;;;5123118;27;20068;-48
2023/09/21 12:09:36;;;;;;;3.75;0.73;;;17.40;99.90;;;;;;5116178;27;20085;-47
2023/09/21 12:12:04;;;;;;;3.35;0.93;;;17.30;99.90;;;;;;5122720;27;20043;-56
2023/09/21 12:14:30;;;;;;;6.50;1.00;;;17.20;99.90;;;;;;5111106;27;20029;-50
2023/09/21 12:17:00;;;;;;;3.40;0.73;;;17.20;99.90;;;;;;5111918;27;20057;-46
2023/09/21 12:19:27;;;;;;;3.78;0.90;;;17.20;99.90;;;;;;5111621;27;20024;-50
2023/09/21 12:21:56;;;;;;;2.80;0.85;;;17.10;99.90;;;;;;5113338;27;20126;-57
2023/09/21 12:24:21;;;;;;;5.93;0.80;;;17.10;99.90;;;;;;5124961;27;20102;-48
2023/09/21 12:26:47;;;;;;;4.85;0.80;;;17.10;99.90;;;;;;5112444;27;20556;-43
2023/09/21 12:29:17;;;;;;;2.10;0.45;;;17.10;99.90;;;;;;5120566;27;20490;-44
2023/09/21 12:31:44;;;;;;;2.35;0.70;;;17.00;99.90;;;;;;5120398;27;20023;-51
2023/09/21 12:34:12;;;;;;;1.60;0.40;;;16.80;99.90;;;;;;5110426;28;20023;-56
2023/09/21 12:36:38;;;;;;;5.43;1.08;;;16.70;99.90;;;;;;5111605;28;20043;-44
2023/09/21 12:39:08;;;;;;;6.45;0.82;;;16.60;99.90;;;;;;5109074;28;20044;-53
2023/09/21 12:41:34;;;;;;;2.83;0.60;;;16.60;99.90;;;;;;5113857;27;20024;-48
2023/09/21 12:44:00;;;;;;;2.88;0.60;;;16.50;99.90;;;;;;5120618;27;20026;-49
2023/09/21 12:46:27;;;;;;;6.05;1.02;;;16.60;99.90;;;;;;5130482;27;20023;-41
2023/09/21 12:48:53;;;;;;;2.55;0.73;;;16.50;99.90;;;;;;5093484;28;20123;-43
2023/09/21 12:51:19;;;;;;;5.53;0.70;;;16.50;99.90;;;;;;5114655;27;20140;-51
2023/09/21 12:53:44;;;;;;;3.50;0.70;;;16.30;99.90;;;;;;5118627;27;20849;-43
2023/09/21 12:56:11;;;;;;;2.33;0.50;;;16.20;99.90;;;;;;5119252;27;21138;-42
2023/09/21 12:58:37;;;;;;;3.67;0.85;;;15.70;99.90;;;;;;5123642;27;20019;-49
2023/09/21 13:01:05;;;;;;;3.00;0.68;;;16.00;99.90;;;;;;5107348;28;20023;-47
2023/09/21 13:03:31;;;;;;;4.40;0.98;;;16.10;99.90;;;;;;5114399;28;20015;-44
2023/09/21 13:05:57;;;;;;;0.98;0.57;;;16.10;99.90;;;;;;5118267;27;20627;-48